Time;durP1;ratioP1;P1;durP2;ratioP2;P2;SDS_P1;SDS_P2;PMS_P1;PMS_P2;Temp;Humidity;BMP_temperature;BMP_pressure;BME280_temperature;BME280_humidity;BME280_pressure;Samples;Min_cycle;Max_cycle;Signal;HPM_P1;HPM_P2
2022/07/14 00:02:06;;;;;;;7.95;4.50;;;;;;;20.64;65.07;99682.84;5121016;27;20035;-57
2022/07/14 00:04:32;;;;;;;7.60;4.75;;;;;;;20.55;65.87;99681.94;5121640;27;20046;-57
2022/07/14 00:06:57;;;;;;;14.63;4.78;;;;;;;20.44;66.12;99673.91;5117739;27;20032;-57
2022/07/14 00:09:22;;;;;;;10.55;4.63;;;;;;;20.31;66.36;99671.91;5116933;27;20023;-56
2022/07/14 00:11:48;;;;;;;8.45;4.50;;;;;;;20.34;65.62;99670.50;5116618;28;20670;-57
2022/07/14 00:14:13;;;;;;;8.65;4.47;;;;;;;20.37;66.55;99673.47;5116938;28;20496;-56
2022/07/14 00:16:39;;;;;;;11.65;4.60;;;;;;;20.50;65.61;99671.09;5120388;28;20031;-57
2022/07/14 00:19:04;;;;;;;11.52;5.40;;;;;;;20.56;65.18;99678.88;5115828;28;20253;-58
2022/07/14 00:21:30;;;;;;;10.50;4.65;;;;;;;20.55;65.54;99677.28;5120971;28;20048;-58
2022/07/14 00:23:55;;;;;;;8.10;4.60;;;;;;;20.43;66.52;99672.25;5116035;28;20028;-56
2022/07/14 00:26:20;;;;;;;7.78;4.78;;;;;;;20.36;67.05;99669.09;5116294;28;20059;-56
2022/07/14 00:28:46;;;;;;;8.35;4.43;;;;;;;20.41;66.93;99679.91;5115431;28;20024;-56
2022/07/14 00:31:11;;;;;;;12.52;4.47;;;;;;;20.43;65.79;99677.72;5094884;28;20027;-56
2022/07/14 00:33:38;;;;;;;9.02;4.70;;;;;;;20.47;64.81;99670.56;5098997;27;20802;-56
2022/07/14 00:36:03;;;;;;;8.82;4.20;;;;;;;20.48;63.97;99671.38;5116927;27;20088;-56
2022/07/14 00:38:29;;;;;;;15.00;4.90;;;;;;;20.51;63.31;99667.25;5102918;27;20032;-59
2022/07/14 00:40:54;;;;;;;11.20;4.32;;;;;;;20.54;62.54;99658.47;5119607;27;20054;-56
2022/07/14 00:43:20;;;;;;;10.25;4.13;;;;;;;20.61;62.87;99654.28;5122208;27;20030;-57
2022/07/14 00:45:45;;;;;;;9.63;4.25;;;;;;;20.67;62.60;99657.75;5121254;27;20031;-57
2022/07/14 00:48:14;;;;;;;21.58;4.93;;;;;;;20.61;62.72;99658.94;5120602;27;20097;-56
2022/07/14 00:50:41;;;;;;;6.80;4.38;;;;;;;20.54;62.96;99658.47;5116590;27;20021;-56
2022/07/14 00:53:07;;;;;;;8.02;4.32;;;;;;;20.61;62.73;99648.84;5121902;27;20481;-58
2022/07/14 00:55:33;;;;;;;9.10;4.22;;;;;;;20.65;62.46;99643.63;5121601;27;20120;-57
2022/07/14 00:57:58;;;;;;;7.75;4.38;;;;;;;20.53;62.94;99652.22;5126139;27;20411;-56
2022/07/14 01:00:24;;;;;;;6.93;4.20;;;;;;;20.48;63.18;99650.41;5118015;27;20027;-58
2022/07/14 01:02:49;;;;;;;9.65;4.65;;;;;;;20.50;62.83;99650.13;5105840;27;20061;-58
2022/07/14 01:05:14;;;;;;;13.43;4.30;;;;;;;20.58;63.17;99648.66;5126558;27;20042;-57
2022/07/14 01:07:40;;;;;;;8.00;4.30;;;;;;;20.51;62.77;99645.47;5126524;27;20026;-58
2022/07/14 01:10:07;;;;;;;10.20;4.05;;;;;;;20.41;64.75;99655.41;5119456;27;20045;-58
2022/07/14 01:12:33;;;;;;;6.65;4.15;;;;;;;20.47;63.75;99651.50;5118508;27;20023;-58
2022/07/14 01:14:58;;;;;;;9.85;4.22;;;;;;;20.44;64.27;99654.84;5107224;27;20541;-57
2022/07/14 01:17:23;;;;;;;7.18;4.15;;;;;;;20.50;63.83;99660.19;5125266;27;20019;-57
2022/07/14 01:19:49;;;;;;;12.10;5.05;;;;;;;20.51;62.98;99659.09;5118092;27;20035;-57
2022/07/14 01:22:14;;;;;;;11.85;4.82;;;;;;;20.45;63.39;99656.44;5122229;27;20483;-57
2022/07/14 01:24:40;;;;;;;8.98;4.50;;;;;;;20.52;63.48;99656.06;5122994;27;20019;-58
2022/07/14 01:27:05;;;;;;;9.93;4.55;;;;;;;20.40;64.42;99661.97;5119976;27;20043;-58
2022/07/14 01:29:31;;;;;;;12.88;4.78;;;;;;;20.35;64.51;99662.06;5101374;27;20024;-58
2022/07/14 01:31:56;;;;;;;16.67;4.90;;;;;;;20.36;64.27;99652.78;5120105;27;20026;-57
2022/07/14 01:34:22;;;;;;;10.52;5.38;;;;;;;20.32;64.92;99665.38;5121772;27;20481;-58
2022/07/14 01:36:49;;;;;;;10.93;4.95;;;;;;;20.31;64.72;99662.94;5123365;27;20032;-58
2022/07/14 01:39:14;;;;;;;11.57;5.38;;;;;;;20.31;65.16;99655.56;5103606;27;20029;-57
2022/07/14 01:41:40;;;;;;;8.27;4.53;;;;;;;20.38;65.11;99656.00;5119999;27;20035;-58
2022/07/14 01:44:05;;;;;;;8.13;4.82;;;;;;;20.26;65.59;99642.06;5119674;27;20027;-57
2022/07/14 01:46:31;;;;;;;9.50;4.72;;;;;;;20.28;65.72;99639.84;5119942;27;20443;-57
2022/07/14 01:48:56;;;;;;;12.57;4.93;;;;;;;20.26;65.40;99639.34;5122945;27;20030;-58
2022/07/14 01:51:22;;;;;;;12.80;4.80;;;;;;;20.20;66.04;99644.06;5125414;27;20024;-57
2022/07/14 01:53:47;;;;;;;13.02;4.95;;;;;;;20.16;66.49;99647.66;5121847;27;20420;-58
2022/07/14 01:56:13;;;;;;;10.77;4.80;;;;;;;20.23;66.01;99640.72;5087958;27;20476;-56
2022/07/14 01:58:38;;;;;;;8.85;5.00;;;;;;;20.06;67.34;99631.50;5123029;27;20072;-58
2022/07/14 02:03:59;;;;;;;8.35;5.03;;;;;;;20.02;67.41;99626.66;5102908;27;20107;-58
2022/07/14 02:06:24;;;;;;;14.90;5.25;;;;;;;20.17;66.91;99627.53;5112497;27;20111;-63
2022/07/14 02:08:50;;;;;;;11.40;4.53;;;;;;;20.26;66.62;99642.06;5115923;27;20028;-58
2022/07/14 02:14:00;;;;;;;7.25;4.90;;;;;;;20.17;67.12;99638.41;5116156;27;20165;-57
2022/07/14 02:16:27;;;;;;;14.00;5.15;;;;;;;20.16;67.00;99642.22;5112674;27;20023;-58
2022/07/14 02:18:52;;;;;;;12.15;5.18;;;;;;;20.18;67.43;99645.47;5100370;27;20081;-57
2022/07/14 02:21:18;;;;;;;8.52;4.60;;;;;;;20.13;67.34;99642.81;5121521;27;20024;-57
2022/07/14 02:23:44;;;;;;;9.10;5.47;;;;;;;20.07;67.92;99643.97;5118362;27;20031;-56
2022/07/14 02:26:12;;;;;;;13.40;6.40;;;;;;;20.08;68.12;99645.63;5116659;27;20012;-57
2022/07/14 02:28:39;;;;;;;14.82;5.60;;;;;;;19.98;68.62;99636.50;5121250;27;20018;-57
2022/07/14 02:31:05;;;;;;;17.20;6.70;;;;;;;20.01;68.27;99645.97;5124806;27;20030;-57
2022/07/14 02:33:31;;;;;;;11.23;6.03;;;;;;;20.02;67.92;99642.97;5117318;27;20023;-57
2022/07/14 02:35:56;;;;;;;12.00;6.03;;;;;;;19.95;68.35;99653.41;5118079;27;20030;-58
2022/07/14 02:38:22;;;;;;;10.23;5.97;;;;;;;19.97;68.93;99651.22;5104698;27;20019;-58
2022/07/14 02:40:47;;;;;;;19.88;6.53;;;;;;;20.01;68.98;99646.78;5097001;27;20054;-58
2022/07/14 02:43:13;;;;;;;14.15;6.13;;;;;;;19.96;69.31;99648.78;5112194;27;20031;-57
2022/07/14 02:45:38;;;;;;;9.32;6.18;;;;;;;19.90;69.12;99647.25;5102688;27;20065;-57
2022/07/14 02:48:06;;;;;;;11.93;5.68;;;;;;;19.84;69.76;99646.47;5112690;27;20081;-57
2022/07/14 02:50:32;;;;;;;11.82;5.97;;;;;;;19.82;70.00;99654.16;5118933;27;20499;-57
2022/07/14 02:52:57;;;;;;;10.93;6.25;;;;;;;19.83;70.27;99644.88;5109500;27;20024;-57
2022/07/14 02:55:23;;;;;;;9.82;5.82;;;;;;;19.72;70.91;99638.78;5120643;27;20569;-57
2022/07/14 02:57:48;;;;;;;14.75;6.50;;;;;;;19.60;71.26;99630.22;5119450;27;20087;-57
2022/07/14 03:00:14;;;;;;;11.50;6.05;;;;;;;19.60;71.36;99633.72;5121108;27;20020;-57
2022/07/14 03:02:39;;;;;;;13.90;5.40;;;;;;;19.57;71.70;99637.03;5096117;27;20062;-57
2022/07/14 03:05:05;;;;;;;10.57;5.80;;;;;;;19.49;72.01;99650.47;5101567;27;20031;-57
2022/07/14 03:07:31;;;;;;;9.48;5.75;;;;;;;19.47;72.08;99648.06;5114021;27;20520;-57
2022/07/14 03:09:56;;;;;;;13.70;6.15;;;;;;;19.51;72.00;99643.63;5115599;27;20397;-57
2022/07/14 03:12:22;;;;;;;9.45;5.68;;;;;;;19.46;72.38;99645.63;5103629;27;20485;-57
2022/07/14 03:14:48;;;;;;;12.15;5.43;;;;;;;19.37;73.01;99648.97;5115153;27;20028;-57
2022/07/14 03:17:14;;;;;;;11.90;6.30;;;;;;;19.32;72.90;99637.34;5104543;27;20106;-57
2022/07/14 03:19:40;;;;;;;13.82;6.20;;;;;;;19.29;73.48;99635.22;5099322;28;20046;-57
2022/07/14 03:22:06;;;;;;;9.32;5.70;;;;;;;19.29;73.32;99632.50;5121797;27;20031;-57
2022/07/14 03:24:31;;;;;;;16.02;6.18;;;;;;;19.42;72.96;99625.53;5096105;28;20027;-57
2022/07/14 03:26:57;;;;;;;12.60;5.85;;;;;;;19.26;73.61;99625.72;5120165;27;20030;-57
2022/07/14 03:29:22;;;;;;;15.45;6.32;;;;;;;19.33;73.30;99631.63;5117959;27;20027;-57
2022/07/14 03:31:48;;;;;;;13.02;6.57;;;;;;;19.27;73.89;99629.25;5128774;27;20381;-57
2022/07/14 03:34:14;;;;;;;11.48;6.05;;;;;;;19.23;73.90;99626.31;5117417;27;20039;-57
2022/07/14 03:36:39;;;;;;;10.63;6.30;;;;;;;19.21;74.29;99625.78;5119407;27;20661;-57
2022/07/14 03:39:04;;;;;;;18.08;6.63;;;;;;;19.13;74.72;99619.09;5122406;27;20075;-57
2022/07/14 03:41:31;;;;;;;17.85;7.05;;;;;;;19.07;74.94;99620.25;5113752;27;20481;-57
2022/07/14 03:43:56;;;;;;;13.45;6.35;;;;;;;19.12;74.64;99622.91;5114417;27;20035;-56
2022/07/14 03:46:22;;;;;;;18.98;6.80;;;;;;;18.98;75.09;99616.56;5114688;28;20020;-57
2022/07/14 03:48:47;;;;;;;17.15;7.35;;;;;;;19.04;75.36;99628.16;5118281;27;20416;-57
2022/07/14 03:51:13;;;;;;;15.20;6.85;;;;;;;18.97;75.48;99636.69;5120720;27;20020;-56
2022/07/14 03:53:38;;;;;;;12.90;6.57;;;;;;;19.00;75.74;99632.56;5120661;27;20371;-57
2022/07/14 03:56:04;;;;;;;20.27;7.70;;;;;;;18.91;75.71;99624.22;5113272;27;20102;-57
2022/07/14 03:58:29;;;;;;;21.27;7.97;;;;;;;18.92;76.02;99617.69;5120147;27;20480;-57
2022/07/14 04:00:55;;;;;;;19.45;10.40;;;;;;;18.72;77.02;99613.25;5116975;27;20132;-57
2022/07/14 04:03:20;;;;;;;16.90;7.93;;;;;;;18.75;76.93;99621.69;5116859;27;20263;-57
2022/07/14 04:05:46;;;;;;;17.90;8.30;;;;;;;18.73;76.84;99626.56;5117978;27;20023;-57
2022/07/14 04:08:11;;;;;;;15.80;7.85;;;;;;;18.64;77.49;99628.25;5116738;27;20023;-57
2022/07/14 04:10:37;;;;;;;16.30;8.38;;;;;;;18.65;77.19;99619.03;5119665;27;20058;-56
2022/07/14 04:13:02;;;;;;;17.50;7.60;;;;;;;18.71;77.10;99620.59;5115874;28;20027;-57
2022/07/14 04:15:29;;;;;;;27.13;8.23;;;;;;;18.58;77.26;99629.41;5120452;28;20465;-56
2022/07/14 04:17:55;;;;;;;21.52;8.30;;;;;;;18.59;77.77;99631.03;5114786;28;20036;-56
2022/07/14 04:20:20;;;;;;;20.23;7.57;;;;;;;18.68;77.11;99629.31;5099271;28;20072;-56
2022/07/14 04:22:47;;;;;;;27.80;8.98;;;;;;;18.53;78.28;99632.19;5120886;28;20031;-56
2022/07/14 04:25:13;;;;;;;20.08;8.80;;;;;;;18.60;77.62;99635.38;5101661;28;20056;-58
2022/07/14 04:27:39;;;;;;;23.42;7.70;;;;;;;18.43;78.56;99635.78;5116140;28;20028;-55
2022/07/14 04:30:05;;;;;;;19.73;7.97;;;;;;;18.56;77.98;99634.31;5121564;28;20073;-57
2022/07/14 04:32:30;;;;;;;23.63;8.20;;;;;;;18.48;78.56;99626.78;5121257;28;20023;-57
2022/07/14 04:34:56;;;;;;;18.98;8.35;;;;;;;18.39;79.02;99631.22;5120779;28;20055;-57
2022/07/14 04:37:22;;;;;;;18.33;8.00;;;;;;;18.42;79.07;99630.63;5115097;28;20031;-57
2022/07/14 04:39:47;;;;;;;20.23;7.80;;;;;;;18.47;78.94;99636.84;5126738;28;20024;-56
2022/07/14 04:42:14;;;;;;;17.13;7.53;;;;;;;18.56;78.56;99642.47;5117268;28;20393;-56
2022/07/14 04:44:41;;;;;;;23.80;7.53;;;;;;;18.50;79.16;99640.91;5113917;28;20068;-56
2022/07/14 04:47:07;;;;;;;21.77;8.00;;;;;;;18.45;78.82;99627.38;5121744;28;20028;-56
2022/07/14 04:52:16;;;;;;;28.08;7.70;;;;;;;18.48;79.19;99632.22;5113669;28;20164;-58
2022/07/14 04:54:42;;;;;;;33.35;8.85;;;;;;;18.51;79.00;99637.06;5119817;28;20019;-56
2022/07/14 04:57:08;;;;;;;41.28;9.02;;;;;;;18.62;78.41;99644.06;5109599;28;20051;-56
2022/07/14 04:59:33;;;;;;;38.17;9.30;;;;;;;18.71;78.02;99630.66;5099610;28;20034;-56
2022/07/14 05:02:00;;;;;;;30.08;8.15;;;;;;;18.60;78.60;99629.94;5113147;28;20023;-56
2022/07/14 05:04:26;;;;;;;26.77;8.65;;;;;;;18.55;78.96;99627.28;5096418;28;20044;-56
2022/07/14 05:06:51;;;;;;;20.00;8.95;;;;;;;18.71;78.14;99628.75;5116559;28;20431;-59
2022/07/14 05:09:18;;;;;;;38.28;9.30;;;;;;;18.79;78.06;99623.81;5116883;28;20024;-56
2022/07/14 05:11:43;;;;;;;34.72;9.15;;;;;;;18.78;77.70;99635.78;5099029;28;20026;-56
2022/07/14 05:14:09;;;;;;;24.73;8.02;;;;;;;18.90;77.41;99634.28;5095769;28;20031;-57
2022/07/14 05:16:34;;;;;;;22.58;7.88;;;;;;;18.98;77.07;99640.19;5114588;28;20072;-56
2022/07/14 05:18:59;;;;;;;23.05;8.50;;;;;;;18.93;77.05;99650.00;5119885;27;20076;-56
2022/07/14 05:21:26;;;;;;;23.83;7.85;;;;;;;18.67;78.52;99649.44;5121089;27;20045;-56
2022/07/14 05:23:51;;;;;;;25.35;8.32;;;;;;;18.51;79.13;99647.94;5104529;27;20055;-58
2022/07/14 05:26:17;;;;;;;27.33;8.82;;;;;;;18.69;78.57;99646.41;5116002;27;20104;-56
2022/07/14 05:28:42;;;;;;;22.85;7.88;;;;;;;18.92;77.74;99647.56;5119873;27;20028;-56
2022/07/14 05:31:08;;;;;;;32.28;8.98;;;;;;;18.76;78.09;99641.50;5108059;27;20023;-56
2022/07/14 05:33:33;;;;;;;28.13;8.77;;;;;;;18.43;79.46;99634.97;5115412;27;20469;-57
2022/07/14 05:35:59;;;;;;;19.00;7.03;;;;;;;18.79;77.88;99637.41;5096771;27;20176;-56
2022/07/14 05:38:24;;;;;;;22.40;8.80;;;;;;;18.81;78.13;99649.59;5103055;28;20493;-55
2022/07/14 05:40:50;;;;;;;23.23;8.02;;;;;;;18.63;78.63;99640.22;5121625;27;20031;-56
2022/07/14 05:43:16;;;;;;;23.48;7.75;;;;;;;18.82;78.40;99642.25;5103051;27;20031;-57
2022/07/14 05:45:41;;;;;;;23.63;7.70;;;;;;;18.99;77.65;99637.19;5119702;27;20470;-57
2022/07/14 05:48:07;;;;;;;27.35;8.52;;;;;;;19.25;76.62;99636.91;5117896;27;20026;-57
2022/07/14 05:50:32;;;;;;;24.52;8.02;;;;;;;19.08;77.08;99645.50;5113825;27;20051;-56
2022/07/14 05:52:58;;;;;;;27.77;8.68;;;;;;;19.20;76.50;99642.41;5098541;27;20090;-57
2022/07/14 05:55:23;;;;;;;21.85;7.13;;;;;;;19.35;75.64;99645.75;5118601;27;20424;-57
2022/07/14 05:57:49;;;;;;;26.85;8.30;;;;;;;19.36;75.56;99643.81;5119740;27;20076;-58
2022/07/14 06:00:15;;;;;;;22.05;8.07;;;;;;;19.45;75.73;99642.09;5100504;27;20385;-57
2022/07/14 06:02:41;;;;;;;31.08;7.80;;;;;;;19.46;75.48;99646.41;5121114;27;20039;-56
2022/07/14 06:05:07;;;;;;;25.85;7.82;;;;;;;19.25;76.20;99636.91;5126414;27;20028;-57
2022/07/14 06:07:33;;;;;;;25.30;7.85;;;;;;;19.25;76.87;99643.16;5121865;27;20543;-56
2022/07/14 06:09:58;;;;;;;21.80;7.43;;;;;;;19.41;75.55;99649.19;5117022;27;20040;-56
2022/07/14 06:12:24;;;;;;;25.95;7.82;;;;;;;19.26;76.58;99641.22;5124488;27;20015;-56
2022/07/14 06:14:49;;;;;;;25.40;8.18;;;;;;;19.34;75.82;99632.44;5119347;27;20020;-56
2022/07/14 06:17:15;;;;;;;30.67;8.02;;;;;;;19.36;75.98;99632.94;5116100;27;20076;-57
2022/07/14 06:19:40;;;;;;;26.50;8.10;;;;;;;19.34;76.28;99632.44;5115696;27;20023;-56
2022/07/14 06:22:06;;;;;;;27.33;8.60;;;;;;;19.25;76.42;99628.75;5117592;27;20027;-56
2022/07/14 06:24:32;;;;;;;28.95;8.10;;;;;;;19.30;76.29;99634.13;5124034;27;20077;-56
2022/07/14 06:26:58;;;;;;;30.48;8.63;;;;;;;19.27;75.86;99643.69;5122578;27;20034;-56
2022/07/14 06:29:23;;;;;;;42.83;9.38;;;;;;;19.28;76.40;99628.97;5114872;27;20019;-56
2022/07/14 06:31:51;;;;;;;29.67;9.18;;;;;;;19.61;74.94;99629.91;5121431;27;20035;-56
2022/07/14 06:34:16;;;;;;;44.10;9.50;;;;;;;19.56;74.86;99634.59;5102817;27;20031;-56
2022/07/14 06:36:41;;;;;;;31.48;7.82;;;;;;;19.33;76.35;99636.25;5100276;27;20026;-56
2022/07/14 06:39:07;;;;;;;26.58;7.95;;;;;;;19.01;77.95;99634.97;5103071;27;20027;-56
2022/07/14 06:41:32;;;;;;;34.75;8.30;;;;;;;19.49;75.67;99636.88;5117646;27;20027;-57
2022/07/14 06:43:58;;;;;;;25.95;8.27;;;;;;;19.46;75.83;99629.31;5121565;27;20382;-57
2022/07/14 06:46:23;;;;;;;29.88;8.60;;;;;;;18.92;77.45;99625.84;5120226;27;20019;-57
2022/07/14 06:48:50;;;;;;;21.55;7.70;;;;;;;18.92;78.36;99623.13;5120317;27;20034;-57
2022/07/14 06:51:15;;;;;;;30.05;8.30;;;;;;;19.33;76.19;99625.38;5117563;27;20035;-56
2022/07/14 06:53:40;;;;;;;26.50;7.57;;;;;;;19.22;76.72;99629.31;5119861;27;20075;-58
2022/07/14 06:56:06;;;;;;;27.98;8.23;;;;;;;19.50;75.62;99625.72;5110015;27;20473;-57
2022/07/14 06:58:32;;;;;;;33.15;8.48;;;;;;;19.54;74.82;99621.28;5110761;27;20627;-58
2022/07/14 07:00:58;;;;;;;32.20;8.15;;;;;;;19.55;74.97;99617.50;5100358;27;20104;-57
2022/07/14 07:03:23;;;;;;;26.42;8.10;;;;;;;19.71;74.51;99620.03;5095696;27;20134;-57
2022/07/14 07:08:32;;;;;;;24.92;7.60;;;;;;;19.81;74.45;99631.56;5116430;27;20334;-57
2022/07/14 07:10:58;;;;;;;26.08;8.35;;;;;;;19.97;73.44;99645.78;5115370;27;20019;-56
2022/07/14 07:13:24;;;;;;;28.38;7.82;;;;;;;20.01;73.15;99640.53;5118137;27;20057;-57
2022/07/14 07:15:50;;;;;;;25.02;7.88;;;;;;;19.83;73.75;99644.88;5114335;27;20047;-59
2022/07/14 07:18:15;;;;;;;38.47;8.40;;;;;;;19.94;73.51;99646.34;5116705;27;20027;-58
2022/07/14 07:20:41;;;;;;;37.47;8.32;;;;;;;19.85;73.94;99648.13;5117007;27;20031;-58
2022/07/14 07:23:06;;;;;;;29.27;8.25;;;;;;;20.02;73.14;99642.97;5080752;28;20084;-56
2022/07/14 07:25:32;;;;;;;30.35;8.05;;;;;;;19.98;73.34;99641.94;5116845;27;20079;-57
2022/07/14 07:27:58;;;;;;;24.80;7.43;;;;;;;19.99;73.10;99642.72;5112930;27;20116;-55
2022/07/14 07:30:24;;;;;;;27.27;7.97;;;;;;;20.18;72.61;99648.19;5090448;28;20039;-58
2022/07/14 07:32:50;;;;;;;30.10;7.80;;;;;;;20.22;72.71;99638.31;5103200;27;20023;-58
2022/07/14 07:35:15;;;;;;;28.50;6.88;;;;;;;20.59;70.99;99653.81;5127321;27;20538;-57
2022/07/14 07:37:41;;;;;;;28.23;7.70;;;;;;;20.52;71.33;99647.06;5102258;27;20109;-58
2022/07/14 07:40:07;;;;;;;36.10;8.98;;;;;;;20.64;70.77;99652.88;5104602;27;20239;-56
2022/07/14 07:42:32;;;;;;;37.17;7.93;;;;;;;20.64;70.45;99658.34;5116206;27;20164;-57
2022/07/14 07:44:58;;;;;;;33.78;7.40;;;;;;;20.52;71.38;99656.06;5119367;27;20039;-57
2022/07/14 07:47:24;;;;;;;24.38;7.75;;;;;;;20.59;70.83;99644.81;5101075;27;20474;-57
2022/07/14 07:49:50;;;;;;;26.55;7.32;;;;;;;20.82;70.88;99659.41;5109433;27;20027;-57
2022/07/14 07:52:16;;;;;;;27.90;7.70;;;;;;;20.92;69.61;99650.22;5119926;27;20031;-57
2022/07/14 07:54:41;;;;;;;31.08;7.80;;;;;;;21.08;69.14;99646.09;5117031;27;20027;-57
2022/07/14 07:57:07;;;;;;;29.50;8.15;;;;;;;20.67;70.30;99663.22;5121202;27;20028;-57
2022/07/14 07:59:32;;;;;;;33.85;7.85;;;;;;;20.70;70.05;99661.81;5126029;27;20322;-57
2022/07/14 08:01:58;;;;;;;32.70;8.02;;;;;;;20.16;71.54;99658.53;5114321;27;20035;-58
2022/07/14 08:04:23;;;;;;;24.80;6.65;;;;;;;20.63;70.39;99652.09;5126117;27;20059;-58
2022/07/14 08:06:48;;;;;;;38.42;8.35;;;;;;;20.41;70.61;99644.53;5116980;27;20035;-57
2022/07/14 08:09:14;;;;;;;24.83;8.55;;;;;;;20.30;70.66;99643.09;5122776;27;20024;-57
2022/07/14 08:11:40;;;;;;;19.48;7.40;;;;;;;20.46;70.68;99649.88;5113080;27;20027;-58
2022/07/14 08:14:05;;;;;;;21.98;7.80;;;;;;;20.08;71.97;99637.44;5120820;28;20024;-57
2022/07/14 08:16:31;;;;;;;25.00;8.43;;;;;;;20.27;71.20;99638.25;5116281;28;20315;-57
2022/07/14 08:18:56;;;;;;;20.70;7.43;;;;;;;20.42;70.68;99639.91;5097831;28;20027;-57
2022/07/14 08:21:23;;;;;;;22.83;8.25;;;;;;;20.40;70.84;99637.47;5116365;28;20020;-57
2022/07/14 08:23:50;;;;;;;30.33;7.32;;;;;;;20.47;70.55;99643.34;5120904;28;20027;-56
2022/07/14 08:26:15;;;;;;;27.98;7.72;;;;;;;20.83;69.44;99640.03;5112367;28;20114;-57
2022/07/14 08:28:41;;;;;;;22.45;6.88;;;;;;;21.44;66.50;99639.97;5123576;28;20019;-57
2022/07/14 08:31:06;;;;;;;22.58;6.93;;;;;;;21.73;65.64;99629.50;5117730;28;20098;-57
2022/07/14 08:33:32;;;;;;;24.17;7.10;;;;;;;22.11;64.46;99634.66;5119119;28;20373;-57
2022/07/14 08:35:57;;;;;;;19.33;6.60;;;;;;;22.87;61.49;99628.41;5114958;28;20020;-57
2022/07/14 08:38:22;;;;;;;18.60;6.07;;;;;;;23.18;59.32;99622.94;5097921;28;20454;-57
2022/07/14 08:40:48;;;;;;;19.42;5.75;;;;;;;22.20;61.36;99631.22;5121478;28;20542;-57
2022/07/14 08:43:13;;;;;;;18.60;5.80;;;;;;;22.01;62.03;99629.44;5096981;28;20034;-56
2022/07/14 08:45:44;;;;;;;27.65;6.30;;;;;;;21.87;61.96;99623.22;5080654;28;20028;-57
2022/07/14 08:48:09;;;;;;;19.83;6.22;;;;;;;21.58;63.24;99621.66;5113214;28;20027;-56
2022/07/14 08:50:35;;;;;;;27.80;6.43;;;;;;;21.95;61.88;99614.31;5105628;28;20388;-56
2022/07/14 08:53:03;;;;;;;19.42;5.60;;;;;;;22.49;60.14;99617.09;5120148;27;20023;-56
2022/07/14 08:55:29;;;;;;;26.85;5.88;;;;;;;24.96;53.96;99631.28;5123336;27;20058;-57
2022/07/14 08:57:54;;;;;;;32.20;6.70;;;;;;;24.49;54.67;99618.41;5121123;27;20031;-57
2022/07/14 09:00:19;;;;;;;26.77;5.82;;;;;;;25.32;51.78;99619.88;5119294;27;20345;-57
2022/07/14 09:02:49;;;;;;;19.55;5.72;;;;;;;24.19;54.04;99617.44;5114565;27;20677;-56
2022/07/14 09:05:15;;;;;;;18.40;5.70;;;;;;;24.45;52.62;99613.84;5116787;27;20076;-57
2022/07/14 09:07:41;;;;;;;19.08;5.28;;;;;;;26.08;47.75;99614.50;5105472;27;20036;-57
2022/07/14 09:10:07;;;;;;;18.50;5.05;;;;;;;23.29;51.34;99620.72;5121120;27;20026;-57
2022/07/14 09:12:32;;;;;;;31.17;6.68;;;;;;;23.48;53.80;99612.22;5117118;27;20378;-57
2022/07/14 09:18:01;;;;;;;17.50;5.10;;;;;;;24.74;48.68;99600.28;5123564;27;20445;-57
2022/07/14 09:20:31;;;;;;;22.00;5.40;;;;;;;25.96;46.80;99609.75;5096492;28;20268;-58
2022/07/14 09:23:01;;;;;;;20.65;4.68;;;;;;;26.83;43.91;99604.22;5123057;27;20034;-57
2022/07/14 09:25:28;;;;;;;21.40;4.45;;;;;;;26.37;42.34;99613.59;5123148;27;20602;-57
2022/07/14 09:27:53;;;;;;;17.85;6.10;;;;;;;26.45;45.75;99604.44;5120874;27;20137;-57
2022/07/14 09:30:19;;;;;;;17.83;4.43;;;;;;;27.51;42.61;99609.16;5122024;27;20201;-56
2022/07/14 09:32:55;;;;;;;13.80;4.07;;;;;;;28.27;39.75;99598.38;5115627;27;20470;-56
2022/07/14 09:35:47;;;;;;;23.60;4.85;;;;;;;27.38;40.92;99587.50;5122666;27;20031;-56
2022/07/14 09:38:19;;;;;;;20.23;4.53;;;;;;;27.46;40.54;99589.34;5094673;28;20066;-57
2022/07/14 09:40:45;;;;;;;25.83;5.65;;;;;;;26.01;44.87;99588.41;5122410;27;20034;-56
2022/07/14 09:43:13;;;;;;;24.40;5.15;;;;;;;26.27;44.55;99587.34;5118311;27;20020;-56
2022/07/14 09:45:44;;;;;;;22.70;4.68;;;;;;;27.13;41.88;99576.47;5116620;27;20027;-56
2022/07/14 09:48:16;;;;;;;19.13;4.82;;;;;;;27.85;40.56;99570.44;5120655;27;20024;-56
2022/07/14 09:50:57;;;;;;;19.77;4.60;;;;;;;28.49;40.29;99565.91;5100814;28;20342;-56
2022/07/14 09:53:33;;;;;;;26.30;5.82;;;;;;;28.55;39.93;99565.25;5111961;27;20015;-56
2022/07/14 09:55:58;;;;;;;21.08;5.28;;;;;;;28.48;40.02;99559.59;5104881;27;20065;-56
2022/07/14 09:58:56;;;;;;;24.10;6.80;;;;;;;27.20;42.96;99557.47;5123438;27;20414;-56
2022/07/14 10:01:23;;;;;;;21.75;4.78;;;;;;;27.63;41.10;99557.97;5119349;27;20102;-56
2022/07/14 10:03:51;;;;;;;29.73;6.25;;;;;;;28.16;39.90;99559.50;5124555;27;20039;-56
2022/07/14 10:06:17;;;;;;;23.77;5.20;;;;;;;28.31;39.74;99559.91;5102262;27;20484;-57
2022/07/14 10:08:46;;;;;;;19.52;5.07;;;;;;;27.74;40.74;99559.88;5119528;27;20049;-57
2022/07/14 10:11:12;;;;;;;22.55;4.60;;;;;;;28.60;38.22;99553.97;5098288;28;20034;-56
2022/07/14 10:13:37;;;;;;;14.57;4.20;;;;;;;27.82;36.85;99549.09;5115494;27;20035;-57
2022/07/14 10:16:03;;;;;;;12.80;4.05;;;;;;;27.03;37.32;99552.19;5118754;27;20405;-56
2022/07/14 10:18:28;;;;;;;17.90;4.70;;;;;;;27.59;36.92;99549.59;5102430;27;20029;-56
2022/07/14 10:20:58;;;;;;;13.27;4.18;;;;;;;27.81;37.37;99541.94;5123962;27;20027;-55
2022/07/14 10:23:23;;;;;;;;;;;;;;;25.94;38.43;99546.97;5124777;27;20092;-56
2022/07/14 10:25:52;;;;;;;19.90;4.13;;;;;;;26.42;37.52;99537.25;5122624;27;19915;-56
2022/07/14 10:28:18;;;;;;;16.30;3.75;;;;;;;27.24;34.21;99541.88;5110180;27;20019;-56
2022/07/14 10:31:22;;;;;;;13.82;3.45;;;;;;;27.09;34.60;99553.56;5117797;27;20036;-56
2022/07/14 10:34:16;;;;;;;12.45;3.60;;;;;;;26.88;36.66;99549.00;5069998;28;20061;-56
2022/07/14 10:37:01;;;;;;;19.23;4.10;;;;;;;27.03;35.35;99549.44;5101945;27;20491;-56
2022/07/14 10:39:34;;;;;;;16.15;3.75;;;;;;;26.31;36.77;99560.00;5069479;27;20045;-56
2022/07/14 10:42:11;;;;;;;19.80;4.25;;;;;;;26.46;36.34;99549.16;5105646;27;20027;-55
2022/07/14 10:44:36;;;;;;;19.48;4.20;;;;;;;26.72;36.91;99564.56;5091434;27;20358;-56
2022/07/14 10:47:15;;;;;;;15.18;3.40;;;;;;;26.28;36.38;99561.47;5086485;28;20035;-57
2022/07/14 10:50:06;;;;;;;19.38;4.00;;;;;;;26.74;35.47;99567.78;5115265;27;20015;-55
2022/07/14 10:52:33;;;;;;;21.67;4.07;;;;;;;27.00;35.27;99563.88;5115097;27;20057;-55
2022/07/14 10:55:21;;;;;;;19.40;4.28;;;;;;;27.49;36.23;99561.91;5116586;27;20033;-56
2022/07/14 10:58:07;;;;;;;16.73;3.95;;;;;;;26.71;37.57;99562.97;5119495;27;20024;-56
2022/07/14 11:00:44;;;;;;;18.75;4.80;;;;;;;26.52;37.79;99574.47;5116899;27;20023;-56
2022/07/14 11:03:28;;;;;;;16.17;4.20;;;;;;;26.65;36.41;99575.31;5116574;27;20043;-55
2022/07/14 11:06:00;;;;;;;15.05;4.28;;;;;;;26.02;37.99;99570.78;5127348;27;20504;-56
2022/07/14 11:08:25;;;;;;;16.35;4.78;;;;;;;25.48;38.72;99580.88;5121773;27;20373;-56
2022/07/14 11:10:54;;;;;;;17.17;4.07;;;;;;;26.07;37.44;99568.97;5101769;27;20027;-56
2022/07/14 11:13:20;;;;;;;9.65;3.75;;;;;;;26.44;36.46;99567.94;5092543;28;20028;-57
2022/07/14 11:15:55;;;;;;;20.30;4.30;;;;;;;26.50;36.49;99564.97;5080641;27;20046;-57
2022/07/14 11:18:21;;;;;;;11.65;3.95;;;;;;;26.81;35.76;99568.03;5119089;27;20039;-58
2022/07/14 11:20:49;;;;;;;18.77;4.22;;;;;;;28.00;35.59;99566.13;5113470;27;20031;-57
2022/07/14 11:23:15;;;;;;;19.95;3.88;;;;;;;27.91;35.29;99574.56;5120231;27;20043;-57
2022/07/14 11:25:41;;;;;;;18.58;3.95;;;;;;;26.53;37.28;99578.03;5116479;27;20447;-57
2022/07/14 11:28:06;;;;;;;17.70;3.85;;;;;;;25.71;38.81;99587.66;5102062;27;20345;-57
2022/07/14 11:30:32;;;;;;;22.10;4.25;;;;;;;25.93;37.51;99588.47;5079182;28;20114;-56
2022/07/14 11:32:59;;;;;;;32.38;4.22;;;;;;;25.37;37.42;99586.75;5116138;27;20072;-56
2022/07/14 11:38:39;;;;;;;36.40;4.10;;;;;;;25.77;37.22;99591.81;5122844;27;20108;-54
2022/07/14 11:41:10;;;;;;;28.98;5.40;;;;;;;24.82;38.89;99589.59;5116792;27;20031;-55
2022/07/14 11:43:36;;;;;;;14.38;3.50;;;;;;;24.66;39.43;99598.38;5120538;27;20363;-55